createdAt,value
2023-02-18T00:01:01.119Z,13.90
2023-02-18T00:03:29.021Z,13.90
2023-02-18T00:05:56.194Z,13.90
2023-02-18T00:08:30.245Z,13.90
2023-02-18T00:10:56.956Z,13.90
2023-02-18T00:13:24.639Z,13.90
2023-02-18T00:15:51.411Z,13.90
2023-02-18T00:18:18.126Z,13.90
2023-02-18T00:20:46.917Z,13.90
2023-02-18T00:23:13.572Z,13.90
2023-02-18T00:25:41.320Z,13.90
2023-02-18T00:28:08.396Z,13.90
2023-02-18T00:30:41.238Z,13.80
2023-02-18T00:33:08.035Z,13.80
2023-02-18T00:35:34.967Z,13.90
2023-02-18T00:38:03.370Z,13.90
2023-02-18T00:40:31.204Z,13.90
2023-02-18T00:42:57.867Z,13.90
2023-02-18T00:45:25.754Z,13.90
2023-02-18T00:47:52.450Z,13.90
2023-02-18T00:50:19.618Z,13.90
2023-02-18T00:52:46.346Z,13.90
2023-02-18T00:55:13.248Z,13.90
2023-02-18T00:57:40.132Z,14.00
2023-02-18T01:00:07.935Z,14.00
2023-02-18T01:02:35.477Z,14.00
2023-02-18T01:05:02.381Z,14.00
2023-02-18T01:07:30.132Z,14.10
2023-02-18T01:09:56.817Z,14.00
2023-02-18T01:12:23.499Z,14.00
2023-02-18T01:14:50.165Z,14.00
2023-02-18T01:17:17.286Z,14.00
2023-02-18T01:19:45.428Z,14.10
2023-02-18T01:22:13.433Z,14.10
2023-02-18T01:24:40.426Z,14.10
2023-02-18T01:27:07.115Z,14.10
2023-02-18T01:29:33.792Z,14.10
2023-02-18T01:32:02.023Z,14.10
2023-02-18T01:34:29.831Z,14.10
2023-02-18T01:36:56.611Z,14.10
2023-02-18T01:39:23.337Z,14.10
2023-02-18T01:41:50.045Z,14.10
2023-02-18T01:44:21.317Z,14.10
2023-02-18T01:46:49.237Z,14.10
2023-02-18T01:49:26.477Z,14.10
2023-02-18T01:52:09.181Z,14.10
2023-02-18T01:54:43.130Z,14.10
2023-02-18T01:57:11.667Z,14.00
2023-02-18T01:59:41.359Z,14.10
2023-02-18T02:02:15.797Z,14.00
2023-02-18T02:04:43.114Z,14.00
2023-02-18T02:07:10.731Z,14.00
2023-02-18T02:09:39.807Z,14.00
2023-02-18T02:12:18.614Z,14.00
2023-02-18T02:14:45.293Z,14.00
2023-02-18T02:17:26.369Z,14.00
2023-02-18T02:20:17.417Z,14.00
2023-02-18T02:23:15.095Z,14.10
2023-02-18T02:25:57.410Z,14.10
2023-02-18T02:28:55.374Z,14.10
2023-02-18T02:31:59.680Z,14.10
2023-02-18T02:34:30.240Z,14.10
2023-02-18T02:37:04.866Z,14.10
2023-02-18T02:40:30.049Z,14.10
2023-02-18T02:43:08.518Z,14.10
2023-02-18T02:46:09.591Z,14.10
2023-02-18T02:48:46.773Z,14.10
2023-02-18T02:51:19.055Z,14.10
2023-02-18T02:53:46.106Z,14.10
2023-02-18T02:56:24.849Z,14.00
2023-02-18T02:59:02.473Z,14.00
2023-02-18T03:01:35.537Z,14.00
2023-02-18T03:04:16.968Z,14.00
2023-02-18T03:06:58.512Z,13.90
2023-02-18T03:09:43.606Z,14.00
2023-02-18T03:12:39.376Z,14.00
2023-02-18T03:15:35.379Z,14.00
2023-02-18T03:18:17.497Z,14.00
2023-02-18T03:20:53.898Z,14.00
2023-02-18T03:23:27.190Z,14.10
2023-02-18T03:25:56.694Z,14.00
2023-02-18T03:28:27.272Z,14.00
2023-02-18T03:30:58.688Z,14.00
2023-02-18T03:33:39.368Z,14.00
2023-02-18T03:36:07.689Z,14.00
2023-02-18T03:38:50.906Z,13.90
2023-02-18T03:41:18.220Z,13.80
2023-02-18T03:44:00.666Z,13.80
2023-02-18T03:46:29.074Z,13.80
2023-02-18T03:48:55.928Z,13.80
2023-02-18T03:51:23.063Z,13.80
2023-02-18T03:53:49.783Z,13.80
2023-02-18T03:56:17.550Z,13.80
2023-02-18T03:58:45.315Z,13.90
2023-02-18T04:01:12.369Z,13.90
2023-02-18T04:03:39.214Z,13.90
2023-02-18T04:06:06.940Z,13.90
2023-02-18T04:08:33.996Z,13.90
2023-02-18T04:11:01.602Z,13.90
2023-02-18T04:13:28.707Z,13.90
2023-02-18T04:15:56.811Z,13.90
2023-02-18T04:18:23.711Z,13.90
2023-02-18T04:20:50.531Z,13.80
2023-02-18T04:23:17.568Z,13.80
2023-02-18T04:25:45.570Z,13.80
2023-02-18T04:28:15.292Z,13.80
2023-02-18T04:30:42.820Z,13.80
2023-02-18T04:33:09.750Z,13.80
2023-02-18T04:35:36.927Z,13.70
2023-02-18T04:38:06.758Z,13.70
2023-02-18T04:40:36.035Z,13.60
2023-02-18T04:43:03.235Z,13.60
2023-02-18T04:45:30.372Z,13.60
2023-02-18T04:47:57.081Z,13.50
2023-02-18T04:50:23.860Z,13.50
2023-02-18T04:52:50.796Z,13.40
2023-02-18T04:55:17.708Z,13.40
2023-02-18T04:57:46.199Z,13.40
2023-02-18T05:00:16.919Z,13.40
2023-02-18T05:02:44.198Z,13.40
2023-02-18T05:05:11.446Z,13.40
2023-02-18T05:07:38.153Z,13.40
2023-02-18T05:10:06.439Z,13.50
2023-02-18T05:12:33.177Z,13.50
2023-02-18T05:15:00.897Z,13.50
2023-02-18T05:17:27.719Z,13.50
2023-02-18T05:19:55.656Z,13.50
2023-02-18T05:22:22.454Z,13.40
2023-02-18T05:24:49.206Z,13.40
2023-02-18T05:27:15.924Z,13.30
2023-02-18T05:29:42.683Z,13.30
2023-02-18T05:32:09.464Z,13.20
2023-02-18T05:34:37.492Z,13.20
2023-02-18T05:37:05.674Z,13.20
2023-02-18T05:39:32.494Z,13.20
2023-02-18T05:41:59.851Z,13.20
2023-02-18T05:44:33.513Z,13.20
2023-02-18T05:47:11.409Z,13.20
2023-02-18T05:49:39.980Z,13.10
2023-02-18T05:52:07.198Z,13.10
2023-02-18T05:54:35.050Z,13.10
2023-02-18T05:57:01.829Z,13.10
2023-02-18T05:59:28.648Z,13.20
2023-02-18T06:01:55.439Z,13.20
2023-02-18T06:04:22.465Z,13.20
2023-02-18T06:06:49.249Z,13.10
2023-02-18T06:09:16.341Z,13.10
2023-02-18T06:11:43.554Z,13.00
2023-02-18T06:14:11.024Z,13.00
2023-02-18T06:16:37.805Z,13.00
2023-02-18T06:19:04.618Z,13.00
2023-02-18T06:21:31.746Z,13.00
2023-02-18T06:23:59.730Z,12.90
2023-02-18T06:26:27.183Z,12.90
2023-02-18T06:28:53.955Z,12.80
2023-02-18T06:31:25.432Z,12.80
2023-02-18T06:33:52.173Z,12.90
2023-02-18T06:36:18.998Z,12.90
2023-02-18T06:38:47.145Z,12.90
2023-02-18T06:41:14.864Z,12.90
2023-02-18T06:43:41.779Z,12.80
2023-02-18T06:46:09.202Z,12.80
2023-02-18T06:48:36.359Z,12.80
2023-02-18T06:51:04.759Z,12.80
2023-02-18T06:53:31.503Z,12.90
2023-02-18T06:56:00.536Z,12.90
2023-02-18T06:58:27.327Z,12.80
2023-02-18T07:00:54.132Z,12.80
2023-02-18T07:03:21.268Z,12.80
2023-02-18T07:05:48.068Z,12.80
2023-02-18T07:08:15.965Z,12.80
2023-02-18T07:10:42.672Z,12.80
2023-02-18T07:13:09.415Z,12.80
2023-02-18T07:15:36.324Z,12.80
2023-02-18T07:18:03.133Z,12.80
2023-02-18T07:20:29.974Z,12.90
2023-02-18T07:22:57.030Z,12.80
2023-02-18T07:25:26.742Z,12.90
2023-02-18T07:27:53.977Z,12.80
2023-02-18T07:30:21.007Z,12.80
2023-02-18T07:32:47.805Z,12.80
2023-02-18T07:35:15.902Z,12.90
2023-02-18T07:37:49.918Z,12.90
2023-02-18T07:40:21.208Z,13.00
2023-02-18T07:42:48.521Z,13.00
2023-02-18T07:45:15.972Z,13.10
2023-02-18T07:47:42.919Z,13.10
2023-02-18T07:50:10.509Z,13.20
2023-02-18T07:52:37.694Z,13.20
2023-02-18T07:55:06.853Z,13.30
2023-02-18T07:57:41.348Z,13.30
2023-02-18T08:00:09.167Z,13.40
2023-02-18T08:02:37.178Z,13.40
2023-02-18T08:05:03.865Z,13.40
2023-02-18T08:07:30.635Z,13.50
2023-02-18T08:09:57.330Z,13.40
2023-02-18T08:12:25.360Z,13.50
2023-02-18T08:14:52.046Z,13.50
2023-02-18T08:17:21.815Z,13.50
2023-02-18T08:19:49.809Z,13.50
2023-02-18T08:22:16.906Z,13.50
2023-02-18T08:24:43.598Z,13.60
2023-02-18T08:27:11.623Z,13.50
2023-02-18T08:29:38.333Z,13.50
2023-02-18T08:32:06.453Z,13.60
2023-02-18T08:34:34.166Z,13.60
2023-02-18T08:37:02.520Z,13.60
2023-02-18T08:39:29.209Z,13.60
2023-02-18T08:41:57.282Z,13.60
2023-02-18T08:44:24.320Z,13.60
2023-02-18T08:46:51.549Z,13.60
2023-02-18T08:49:21.436Z,13.60
2023-02-18T08:51:50.559Z,13.60
2023-02-18T08:54:18.168Z,13.50
2023-02-18T08:56:45.028Z,13.50
2023-02-18T08:59:11.772Z,13.50
2023-02-18T09:01:40.468Z,13.40
2023-02-18T09:04:07.312Z,13.40
2023-02-18T09:06:38.344Z,13.40
2023-02-18T09:09:06.355Z,13.30
2023-02-18T09:11:34.528Z,13.30
2023-02-18T09:14:02.195Z,13.30
2023-02-18T09:16:29.987Z,13.40
2023-02-18T09:18:58.806Z,13.40
2023-02-18T09:21:26.065Z,13.40
2023-02-18T09:23:53.398Z,13.40
2023-02-18T09:26:23.152Z,13.40
2023-02-18T09:28:51.357Z,13.50
2023-02-18T09:31:22.091Z,13.50
2023-02-18T09:33:52.478Z,13.50
2023-02-18T09:36:20.971Z,13.50
2023-02-18T09:38:48.280Z,13.50
2023-02-18T09:41:18.359Z,13.50
2023-02-18T09:43:50.664Z,13.50
2023-02-18T09:46:28.778Z,13.50
2023-02-18T09:48:56.107Z,13.50
2023-02-18T09:51:24.098Z,13.60
2023-02-18T09:53:54.382Z,13.60
2023-02-18T09:56:28.678Z,13.60
2023-02-18T09:58:58.768Z,13.50
2023-02-18T10:01:31.624Z,13.50
2023-02-18T10:04:04.955Z,13.60
2023-02-18T10:06:39.304Z,13.50
2023-02-18T10:09:35.360Z,13.60
2023-02-18T10:12:18.426Z,13.60
2023-02-18T10:14:51.097Z,13.60
2023-02-18T10:17:18.875Z,13.60
2023-02-18T10:19:48.822Z,13.60
2023-02-18T10:22:17.383Z,13.60
2023-02-18T10:25:04.739Z,13.60
2023-02-18T10:27:36.081Z,13.50
2023-02-18T10:30:30.133Z,13.40
2023-02-18T10:33:11.765Z,13.40
2023-02-18T10:35:59.783Z,13.40
2023-02-18T10:38:42.062Z,13.40
2023-02-18T10:41:34.769Z,13.50
2023-02-18T10:44:22.861Z,13.40
2023-02-18T10:47:10.052Z,13.40
2023-02-18T10:49:58.121Z,13.40
2023-02-18T10:52:29.077Z,13.40
2023-02-18T10:55:12.181Z,13.40
2023-02-18T10:57:54.172Z,13.40
2023-02-18T11:00:27.160Z,13.40
2023-02-18T11:03:12.794Z,13.50
2023-02-18T11:05:39.727Z,13.50
2023-02-18T11:08:11.105Z,13.60
2023-02-18T11:10:46.609Z,13.70
2023-02-18T11:13:17.385Z,13.70
2023-02-18T11:16:01.397Z,13.80
2023-02-18T11:18:43.371Z,13.80
2023-02-18T11:21:26.978Z,13.80
2023-02-18T11:23:55.585Z,13.80
2023-02-18T11:26:30.310Z,13.90
2023-02-18T11:29:25.699Z,13.90
2023-02-18T11:31:56.321Z,13.90
2023-02-18T11:34:33.135Z,13.90
2023-02-18T11:37:12.757Z,13.90
2023-02-18T11:39:45.475Z,13.90
2023-02-18T11:42:17.515Z,14.00
2023-02-18T11:44:54.562Z,14.00
2023-02-18T11:47:25.407Z,14.00
2023-02-18T11:50:10.033Z,14.00
2023-02-18T11:52:51.308Z,14.00
2023-02-18T11:55:27.331Z,14.00
2023-02-18T11:58:03.634Z,14.00
2023-02-18T12:00:46.006Z,14.00
2023-02-18T12:03:25.452Z,14.00
2023-02-18T12:05:52.646Z,14.00
2023-02-18T12:08:27.687Z,14.00
2023-02-18T12:11:00.867Z,14.00
2023-02-18T12:13:35.008Z,13.90
2023-02-18T12:16:04.997Z,13.90
2023-02-18T12:18:49.429Z,13.80
2023-02-18T12:21:38.339Z,13.90
2023-02-18T12:24:50.244Z,13.90
2023-02-18T12:27:30.458Z,13.90
2023-02-18T12:30:09.038Z,14.10
2023-02-18T12:33:00.227Z,13.90
2023-02-18T12:35:41.912Z,13.90
2023-02-18T12:38:44.423Z,13.90
2023-02-18T12:41:29.647Z,13.90
2023-02-18T12:44:18.307Z,13.90
2023-02-18T12:46:47.813Z,13.90
2023-02-18T12:49:41.658Z,13.90
2023-02-18T12:52:35.914Z,13.90
2023-02-18T12:55:19.727Z,13.90
2023-02-18T12:58:04.792Z,13.90
2023-02-18T13:00:42.939Z,13.80
2023-02-18T13:03:27.220Z,13.80
2023-02-18T13:06:19.217Z,13.90
2023-02-18T13:09:03.652Z,13.90
2023-02-18T13:11:30.384Z,13.80
2023-02-18T13:14:17.021Z,13.90
2023-02-18T13:16:48.075Z,13.90
2023-02-18T13:19:49.232Z,13.90
2023-02-18T13:22:20.418Z,13.90
2023-02-18T13:24:50.108Z,13.90
2023-02-18T13:27:35.340Z,14.00
2023-02-18T13:30:42.871Z,14.00
2023-02-18T13:33:28.506Z,14.00
2023-02-18T13:36:18.764Z,14.00
2023-02-18T13:39:02.373Z,14.00
2023-02-18T13:41:30.646Z,14.00
2023-02-18T13:43:57.592Z,14.10
2023-02-18T13:46:26.363Z,14.10
2023-02-18T13:49:12.481Z,14.10
2023-02-18T13:51:48.903Z,14.10
2023-02-18T13:54:25.248Z,14.10
2023-02-18T13:57:06.923Z,14.10
2023-02-18T13:59:40.509Z,14.10
2023-02-18T14:02:26.342Z,14.10
2023-02-18T14:05:21.398Z,14.10
2023-02-18T14:08:29.165Z,14.00
2023-02-18T14:11:14.497Z,14.00
2023-02-18T14:13:43.060Z,14.10
2023-02-18T14:16:13.551Z,14.10
2023-02-18T14:18:40.375Z,14.10
2023-02-18T14:21:13.305Z,14.10
2023-02-18T14:23:59.982Z,14.20
2023-02-18T14:26:32.969Z,14.20
2023-02-18T14:29:12.098Z,14.10
2023-02-18T14:31:52.443Z,14.20
2023-02-18T14:34:37.949Z,14.20
2023-02-18T14:37:04.732Z,14.20
2023-02-18T14:39:52.975Z,14.20
2023-02-18T14:42:43.969Z,14.20
2023-02-18T14:45:32.368Z,14.30
2023-02-18T14:48:33.986Z,14.30
2023-02-18T14:51:01.274Z,14.30
2023-02-18T14:53:29.022Z,14.30
2023-02-18T14:56:05.441Z,14.30
2023-02-18T14:58:42.170Z,14.40
2023-02-18T15:01:23.838Z,14.30
2023-02-18T15:03:53.512Z,14.30
2023-02-18T15:06:24.371Z,14.20
2023-02-18T15:08:51.172Z,14.30
2023-02-18T15:11:22.836Z,14.30
2023-02-18T15:13:51.548Z,14.30
2023-02-18T15:16:33.196Z,14.30
2023-02-18T15:19:04.680Z,14.30
2023-02-18T15:21:44.026Z,14.30
2023-02-18T15:24:35.085Z,14.40
2023-02-18T15:27:25.097Z,14.30
2023-02-18T15:29:56.836Z,14.30
2023-02-18T15:32:29.103Z,14.20
2023-02-18T15:35:03.048Z,14.20
2023-02-18T15:37:31.778Z,14.20
2023-02-18T15:39:59.076Z,14.20
2023-02-18T15:42:33.952Z,14.20
2023-02-18T15:45:26.220Z,14.20
2023-02-18T15:47:57.606Z,14.20
2023-02-18T15:50:27.997Z,14.20
2023-02-18T15:52:59.989Z,14.10
2023-02-18T15:55:40.228Z,14.20
2023-02-18T15:58:15.944Z,14.20
2023-02-18T16:00:56.197Z,14.20
2023-02-18T16:03:32.659Z,14.20
2023-02-18T16:06:18.642Z,14.20
2023-02-18T16:09:09.864Z,14.20
2023-02-18T16:11:44.104Z,14.20
2023-02-18T16:14:37.773Z,14.10
2023-02-18T16:17:13.287Z,14.10
2023-02-18T16:20:04.516Z,14.40
2023-02-18T16:22:32.320Z,14.50
2023-02-18T16:25:08.685Z,14.60
2023-02-18T16:27:39.166Z,14.70
2023-02-18T16:30:21.359Z,14.80
2023-02-18T16:32:48.649Z,14.90
2023-02-18T16:35:15.941Z,14.80
2023-02-18T16:37:45.890Z,14.90
2023-02-18T16:40:31.530Z,14.80
2023-02-18T16:43:03.436Z,14.80
2023-02-18T16:45:37.655Z,14.80
2023-02-18T16:48:05.730Z,14.70
2023-02-18T16:50:36.540Z,14.70
2023-02-18T16:53:04.541Z,14.60
2023-02-18T16:55:32.814Z,14.60
2023-02-18T16:57:59.716Z,14.50
2023-02-18T17:00:27.140Z,14.50
2023-02-18T17:03:01.334Z,14.50
2023-02-18T17:05:39.534Z,14.40
2023-02-18T17:08:23.077Z,14.40
2023-02-18T17:10:53.217Z,14.40
2023-02-18T17:13:23.281Z,14.40
2023-02-18T17:15:53.833Z,14.40
2023-02-18T17:18:21.466Z,14.40
2023-02-18T17:20:49.906Z,14.30
2023-02-18T17:23:22.103Z,14.30
2023-02-18T17:25:50.484Z,14.30
2023-02-18T17:28:19.352Z,14.30
2023-02-18T17:31:00.929Z,14.20
2023-02-18T17:33:34.176Z,14.20
2023-02-18T17:36:01.777Z,14.20
2023-02-18T17:38:29.002Z,14.20
2023-02-18T17:40:56.186Z,14.20
2023-02-18T17:43:26.382Z,14.20
2023-02-18T17:46:01.607Z,14.20
2023-02-18T17:48:33.145Z,14.20
2023-02-18T17:51:01.317Z,14.20
2023-02-18T17:53:28.404Z,14.20
2023-02-18T17:55:56.705Z,14.20
2023-02-18T17:58:27.692Z,14.20
2023-02-18T18:00:56.946Z,14.10
2023-02-18T18:03:36.070Z,14.10
2023-02-18T18:06:06.232Z,14.10
2023-02-18T18:08:37.779Z,14.10
2023-02-18T18:11:06.265Z,14.00
2023-02-18T18:13:37.487Z,14.00
2023-02-18T18:18:53.535Z,13.90
2023-02-18T18:21:32.627Z,13.90
2023-02-18T18:24:10.771Z,13.80
2023-02-18T18:26:39.562Z,13.80
2023-02-18T18:29:06.899Z,13.80
2023-02-18T18:31:36.459Z,13.80
2023-02-18T18:34:03.994Z,13.80
2023-02-18T18:36:31.154Z,13.80
2023-02-18T18:38:58.325Z,13.70
2023-02-18T18:41:31.258Z,13.60
2023-02-18T18:43:58.514Z,13.60
2023-02-18T18:46:28.012Z,13.60
2023-02-18T18:48:55.090Z,13.50
2023-02-18T18:51:31.671Z,13.50
2023-02-18T18:54:02.246Z,13.40
2023-02-18T18:56:29.367Z,13.50
2023-02-18T18:58:57.535Z,13.50
2023-02-18T19:01:27.810Z,13.50
2023-02-18T19:03:55.441Z,13.60
2023-02-18T19:06:22.442Z,13.50
2023-02-18T19:08:52.758Z,13.60
2023-02-18T19:11:20.255Z,13.60
2023-02-18T19:13:48.414Z,13.60
2023-02-18T19:16:21.203Z,13.70
2023-02-18T19:18:54.741Z,13.70
2023-02-18T19:21:22.327Z,13.70
2023-02-18T19:23:53.309Z,13.70
2023-02-18T19:26:21.295Z,13.70
2023-02-18T19:28:49.113Z,13.70
2023-02-18T19:31:16.488Z,13.70
2023-02-18T19:33:47.879Z,13.70
2023-02-18T19:36:19.486Z,13.70
2023-02-18T19:38:47.078Z,13.70
2023-02-18T19:41:17.153Z,13.70
2023-02-18T19:43:47.654Z,13.70
2023-02-18T19:46:16.645Z,13.70
2023-02-18T19:48:43.799Z,13.70
2023-02-18T19:51:11.400Z,13.70
2023-02-18T19:53:41.480Z,13.70
2023-02-18T19:56:08.801Z,13.70
2023-02-18T19:58:40.280Z,13.70
2023-02-18T20:01:15.315Z,13.60
2023-02-18T20:03:47.059Z,13.70
2023-02-18T20:06:19.332Z,13.70
2023-02-18T20:08:46.694Z,13.70
2023-02-18T20:11:15.128Z,13.60
2023-02-18T20:13:42.485Z,13.60
2023-02-18T20:16:10.748Z,13.70
2023-02-18T20:18:39.633Z,13.70
2023-02-18T20:21:06.818Z,13.70
2023-02-18T20:23:34.250Z,13.60
2023-02-18T20:26:04.336Z,13.60
2023-02-18T20:28:33.950Z,13.60
2023-02-18T20:31:10.101Z,13.60
2023-02-18T20:33:38.712Z,13.60
2023-02-18T20:36:08.624Z,13.60
2023-02-18T20:38:37.712Z,13.60
2023-02-18T20:41:19.718Z,13.60
2023-02-18T20:43:51.875Z,13.60
2023-02-18T20:46:22.306Z,13.60
2023-02-18T20:48:49.708Z,13.70
2023-02-18T20:51:19.566Z,13.70
2023-02-18T20:53:50.802Z,13.70
2023-02-18T20:56:21.596Z,13.70
2023-02-18T20:58:49.072Z,13.60
2023-02-18T21:01:19.758Z,13.60
2023-02-18T21:03:48.407Z,13.70
2023-02-18T21:06:24.337Z,13.60
2023-02-18T21:08:53.029Z,13.60
2023-02-18T21:11:26.043Z,13.70
2023-02-18T21:13:55.384Z,13.70
2023-02-18T21:16:26.468Z,13.70
2023-02-18T21:18:54.495Z,13.70
2023-02-18T21:21:23.909Z,13.80
2023-02-18T21:23:52.227Z,13.80
2023-02-18T21:26:26.230Z,13.80
2023-02-18T21:28:56.704Z,13.80
2023-02-18T21:31:32.975Z,13.80
2023-02-18T21:34:08.044Z,13.80
2023-02-18T21:36:37.888Z,13.80
2023-02-18T21:39:07.564Z,13.80
2023-02-18T21:41:38.989Z,13.80
2023-02-18T21:44:14.926Z,13.80
2023-02-18T21:46:55.153Z,13.80
2023-02-18T21:49:22.049Z,13.70
2023-02-18T21:52:08.495Z,13.70
2023-02-18T21:54:41.238Z,13.70
2023-02-18T21:57:12.540Z,13.70
2023-02-18T21:59:41.083Z,13.70
2023-02-18T22:02:16.884Z,13.70
2023-02-18T22:04:44.032Z,13.70
2023-02-18T22:07:10.924Z,13.70
2023-02-18T22:09:37.714Z,13.70
2023-02-18T22:12:05.088Z,13.70
2023-02-18T22:14:32.039Z,13.70
2023-02-18T22:16:59.042Z,13.70
2023-02-18T22:19:25.880Z,13.70
2023-02-18T22:21:52.660Z,13.70
2023-02-18T22:24:20.724Z,13.70
2023-02-18T22:26:48.446Z,13.70
2023-02-18T22:29:17.040Z,13.70
2023-02-18T22:31:43.950Z,13.70
2023-02-18T22:34:11.206Z,13.70
2023-02-18T22:36:38.018Z,13.70
2023-02-18T22:39:05.689Z,13.70
2023-02-18T22:41:34.617Z,13.60
2023-02-18T22:44:04.035Z,13.60
2023-02-18T22:46:33.223Z,13.60
2023-02-18T22:49:00.639Z,13.60
2023-02-18T22:51:31.666Z,13.60
2023-02-18T22:53:59.850Z,13.60
2023-02-18T22:56:28.379Z,13.60
2023-02-18T22:58:56.659Z,13.50
2023-02-18T23:01:32.022Z,13.50
2023-02-18T23:04:04.888Z,13.50
2023-02-18T23:06:31.590Z,13.50
2023-02-18T23:08:58.546Z,13.50
2023-02-18T23:11:25.474Z,13.60
2023-02-18T23:14:13.624Z,13.60
2023-02-18T23:16:59.699Z,13.60
2023-02-18T23:19:28.606Z,13.60
2023-02-18T23:21:55.497Z,13.50
2023-02-18T23:24:22.244Z,13.50
2023-02-18T23:26:49.564Z,13.50
2023-02-18T23:29:16.775Z,13.60
2023-02-18T23:31:44.042Z,13.60
2023-02-18T23:34:15.403Z,13.60
2023-02-18T23:36:43.258Z,13.60
2023-02-18T23:39:13.796Z,13.60
2023-02-18T23:41:40.567Z,13.60
2023-02-18T23:44:10.574Z,13.60
2023-02-18T23:46:38.156Z,13.50
2023-02-18T23:49:05.545Z,13.50
2023-02-18T23:51:32.469Z,13.50
2023-02-18T23:54:03.425Z,13.50
2023-02-18T23:56:32.374Z,13.50
2023-02-18T23:59:01.904Z,13.40
